sensor_id;sensor_type;location;lat;lon;timestamp;P1;durP1;ratioP1;P2;durP2;ratioP2
76065;SDS011;64763;48.928;8.474;2022-12-07T00:01:19;13.80;;;7.40;;
76065;SDS011;64763;48.928;8.474;2022-12-07T00:06:14;13.73;;;7.47;;
76065;SDS011;64763;48.928;8.474;2022-12-07T00:08:40;13.75;;;8.13;;
76065;SDS011;64763;48.928;8.474;2022-12-07T00:11:10;14.15;;;7.85;;
76065;SDS011;64763;48.928;8.474;2022-12-07T00:13:40;16.33;;;7.32;;
76065;SDS011;64763;48.928;8.474;2022-12-07T00:16:10;16.38;;;8.15;;
76065;SDS011;64763;48.928;8.474;2022-12-07T00:18:40;16.50;;;7.38;;
76065;SDS011;64763;48.928;8.474;2022-12-07T00:21:08;13.57;;;7.88;;
76065;SDS011;64763;48.928;8.474;2022-12-07T00:23:35;13.82;;;7.25;;
76065;SDS011;64763;48.928;8.474;2022-12-07T00:26:07;14.85;;;7.60;;
76065;SDS011;64763;48.928;8.474;2022-12-07T00:28:34;14.75;;;7.63;;
76065;SDS011;64763;48.928;8.474;2022-12-07T00:31:00;13.05;;;7.68;;
76065;SDS011;64763;48.928;8.474;2022-12-07T00:33:35;15.57;;;7.70;;
76065;SDS011;64763;48.928;8.474;2022-12-07T00:36:02;12.38;;;7.13;;
76065;SDS011;64763;48.928;8.474;2022-12-07T00:38:29;15.63;;;7.05;;
76065;SDS011;64763;48.928;8.474;2022-12-07T00:40:59;15.43;;;7.88;;
76065;SDS011;64763;48.928;8.474;2022-12-07T00:43:26;14.40;;;8.13;;
76065;SDS011;64763;48.928;8.474;2022-12-07T00:45:51;14.35;;;7.50;;
76065;SDS011;64763;48.928;8.474;2022-12-07T00:48:17;14.77;;;7.22;;
76065;SDS011;64763;48.928;8.474;2022-12-07T00:50:43;12.27;;;6.93;;
76065;SDS011;64763;48.928;8.474;2022-12-07T00:53:08;15.93;;;8.00;;
76065;SDS011;64763;48.928;8.474;2022-12-07T00:55:34;13.65;;;7.22;;
76065;SDS011;64763;48.928;8.474;2022-12-07T00:57:59;15.60;;;7.75;;
76065;SDS011;64763;48.928;8.474;2022-12-07T01:00:25;12.70;;;7.18;;
76065;SDS011;64763;48.928;8.474;2022-12-07T01:02:50;12.82;;;7.07;;
76065;SDS011;64763;48.928;8.474;2022-12-07T01:05:15;14.88;;;7.53;;
76065;SDS011;64763;48.928;8.474;2022-12-07T01:07:41;14.68;;;7.00;;
76065;SDS011;64763;48.928;8.474;2022-12-07T01:10:06;13.80;;;7.50;;
76065;SDS011;64763;48.928;8.474;2022-12-07T01:12:32;15.20;;;7.97;;
76065;SDS011;64763;48.928;8.474;2022-12-07T01:14:57;15.35;;;7.75;;
76065;SDS011;64763;48.928;8.474;2022-12-07T01:17:22;15.93;;;8.02;;
76065;SDS011;64763;48.928;8.474;2022-12-07T01:19:48;14.23;;;6.88;;
76065;SDS011;64763;48.928;8.474;2022-12-07T01:22:13;13.27;;;7.30;;
76065;SDS011;64763;48.928;8.474;2022-12-07T01:24:38;15.55;;;7.60;;
76065;SDS011;64763;48.928;8.474;2022-12-07T01:27:04;16.55;;;8.38;;
76065;SDS011;64763;48.928;8.474;2022-12-07T01:29:29;16.42;;;8.32;;
76065;SDS011;64763;48.928;8.474;2022-12-07T01:31:54;14.75;;;7.70;;
76065;SDS011;64763;48.928;8.474;2022-12-07T01:34:20;15.50;;;7.82;;
76065;SDS011;64763;48.928;8.474;2022-12-07T01:36:45;13.18;;;7.90;;
76065;SDS011;64763;48.928;8.474;2022-12-07T01:39:10;12.95;;;6.90;;
76065;SDS011;64763;48.928;8.474;2022-12-07T01:41:37;15.40;;;7.90;;
76065;SDS011;64763;48.928;8.474;2022-12-07T01:44:29;12.82;;;7.10;;
76065;SDS011;64763;48.928;8.474;2022-12-07T01:46:58;16.30;;;8.48;;
76065;SDS011;64763;48.928;8.474;2022-12-07T01:52:18;13.60;;;7.53;;
76065;SDS011;64763;48.928;8.474;2022-12-07T01:57:14;13.52;;;6.63;;
76065;SDS011;64763;48.928;8.474;2022-12-07T01:59:41;13.35;;;7.03;;
76065;SDS011;64763;48.928;8.474;2022-12-07T02:02:10;18.73;;;7.80;;
76065;SDS011;64763;48.928;8.474;2022-12-07T02:04:39;14.20;;;7.28;;
76065;SDS011;64763;48.928;8.474;2022-12-07T02:07:04;15.73;;;7.68;;
76065;SDS011;64763;48.928;8.474;2022-12-07T02:09:30;14.40;;;7.28;;
76065;SDS011;64763;48.928;8.474;2022-12-07T02:11:55;14.82;;;7.20;;
76065;SDS011;64763;48.928;8.474;2022-12-07T02:14:21;14.05;;;6.95;;
76065;SDS011;64763;48.928;8.474;2022-12-07T02:17:09;14.73;;;6.93;;
76065;SDS011;64763;48.928;8.474;2022-12-07T02:19:47;13.88;;;6.88;;
76065;SDS011;64763;48.928;8.474;2022-12-07T02:28:29;11.57;;;6.35;;
76065;SDS011;64763;48.928;8.474;2022-12-07T02:30:58;16.52;;;7.03;;
76065;SDS011;64763;48.928;8.474;2022-12-07T02:33:46;9.98;;;6.00;;
76065;SDS011;64763;48.928;8.474;2022-12-07T02:36:16;11.73;;;6.18;;
76065;SDS011;64763;48.928;8.474;2022-12-07T02:38:47;11.63;;;6.07;;
76065;SDS011;64763;48.928;8.474;2022-12-07T02:43:48;14.00;;;6.82;;
76065;SDS011;64763;48.928;8.474;2022-12-07T02:46:17;11.32;;;6.32;;
76065;SDS011;64763;48.928;8.474;2022-12-07T02:48:46;10.55;;;6.55;;
76065;SDS011;64763;48.928;8.474;2022-12-07T02:51:12;12.63;;;6.72;;
76065;SDS011;64763;48.928;8.474;2022-12-07T02:53:39;11.35;;;5.93;;
76065;SDS011;64763;48.928;8.474;2022-12-07T03:04:36;12.77;;;6.70;;
76065;SDS011;64763;48.928;8.474;2022-12-07T03:10:14;13.88;;;7.45;;
76065;SDS011;64763;48.928;8.474;2022-12-07T03:12:46;18.65;;;8.52;;
76065;SDS011;64763;48.928;8.474;2022-12-07T03:15:17;18.60;;;9.60;;
76065;SDS011;64763;48.928;8.474;2022-12-07T03:17:47;17.73;;;8.80;;
76065;SDS011;64763;48.928;8.474;2022-12-07T03:20:15;17.20;;;9.15;;
76065;SDS011;64763;48.928;8.474;2022-12-07T03:22:43;18.02;;;8.73;;
76065;SDS011;64763;48.928;8.474;2022-12-07T03:25:11;15.63;;;8.80;;
76065;SDS011;64763;48.928;8.474;2022-12-07T03:27:40;15.65;;;8.80;;
76065;SDS011;64763;48.928;8.474;2022-12-07T03:30:12;15.93;;;9.02;;
76065;SDS011;64763;48.928;8.474;2022-12-07T03:33:27;13.40;;;8.00;;
76065;SDS011;64763;48.928;8.474;2022-12-07T03:35:39;14.90;;;7.72;;
76065;SDS011;64763;48.928;8.474;2022-12-07T03:38:23;11.80;;;6.93;;
76065;SDS011;64763;48.928;8.474;2022-12-07T03:41:01;14.57;;;7.95;;
76065;SDS011;64763;48.928;8.474;2022-12-07T03:43:31;13.05;;;6.80;;
76065;SDS011;64763;48.928;8.474;2022-12-07T03:46:00;13.00;;;7.05;;
76065;SDS011;64763;48.928;8.474;2022-12-07T03:51:06;12.90;;;7.17;;
76065;SDS011;64763;48.928;8.474;2022-12-07T03:53:49;13.57;;;6.50;;
76065;SDS011;64763;48.928;8.474;2022-12-07T03:56:18;12.73;;;7.00;;
76065;SDS011;64763;48.928;8.474;2022-12-07T03:58:44;10.52;;;5.70;;
76065;SDS011;64763;48.928;8.474;2022-12-07T04:01:09;14.50;;;7.10;;
76065;SDS011;64763;48.928;8.474;2022-12-07T04:03:35;12.52;;;7.22;;
76065;SDS011;64763;48.928;8.474;2022-12-07T04:06:00;12.93;;;6.65;;
76065;SDS011;64763;48.928;8.474;2022-12-07T04:08:26;12.80;;;6.15;;
76065;SDS011;64763;48.928;8.474;2022-12-07T04:10:51;15.43;;;6.53;;
76065;SDS011;64763;48.928;8.474;2022-12-07T04:13:17;14.27;;;7.38;;
76065;SDS011;64763;48.928;8.474;2022-12-07T04:15:42;14.02;;;7.68;;
76065;SDS011;64763;48.928;8.474;2022-12-07T04:18:07;15.98;;;7.40;;
76065;SDS011;64763;48.928;8.474;2022-12-07T04:20:33;12.77;;;7.32;;
76065;SDS011;64763;48.928;8.474;2022-12-07T04:22:58;16.25;;;8.00;;
76065;SDS011;64763;48.928;8.474;2022-12-07T04:25:23;15.77;;;8.10;;
76065;SDS011;64763;48.928;8.474;2022-12-07T04:27:49;15.90;;;8.30;;
76065;SDS011;64763;48.928;8.474;2022-12-07T04:30:14;17.13;;;7.93;;
76065;SDS011;64763;48.928;8.474;2022-12-07T04:32:39;18.88;;;8.30;;
76065;SDS011;64763;48.928;8.474;2022-12-07T04:35:05;13.57;;;7.50;;
76065;SDS011;64763;48.928;8.474;2022-12-07T04:37:31;16.20;;;7.88;;
76065;SDS011;64763;48.928;8.474;2022-12-07T04:39:57;14.40;;;7.38;;
76065;SDS011;64763;48.928;8.474;2022-12-07T04:42:22;13.75;;;7.28;;
76065;SDS011;64763;48.928;8.474;2022-12-07T04:44:48;14.35;;;7.07;;
76065;SDS011;64763;48.928;8.474;2022-12-07T04:47:13;15.25;;;7.18;;
76065;SDS011;64763;48.928;8.474;2022-12-07T04:49:38;12.35;;;6.68;;
76065;SDS011;64763;48.928;8.474;2022-12-07T04:52:04;14.27;;;7.07;;
76065;SDS011;64763;48.928;8.474;2022-12-07T04:54:29;11.55;;;6.40;;
76065;SDS011;64763;48.928;8.474;2022-12-07T04:56:54;14.18;;;7.25;;
76065;SDS011;64763;48.928;8.474;2022-12-07T04:59:20;14.60;;;7.25;;
76065;SDS011;64763;48.928;8.474;2022-12-07T05:01:45;12.95;;;6.22;;
76065;SDS011;64763;48.928;8.474;2022-12-07T05:04:10;12.82;;;6.75;;
76065;SDS011;64763;48.928;8.474;2022-12-07T05:06:36;14.60;;;7.03;;
76065;SDS011;64763;48.928;8.474;2022-12-07T05:09:02;10.85;;;6.25;;
76065;SDS011;64763;48.928;8.474;2022-12-07T05:11:27;14.57;;;6.47;;
76065;SDS011;64763;48.928;8.474;2022-12-07T05:16:32;13.02;;;7.20;;
76065;SDS011;64763;48.928;8.474;2022-12-07T05:18:57;13.20;;;6.32;;
76065;SDS011;64763;48.928;8.474;2022-12-07T05:21:23;12.98;;;6.72;;
76065;SDS011;64763;48.928;8.474;2022-12-07T05:23:48;13.25;;;6.65;;
76065;SDS011;64763;48.928;8.474;2022-12-07T05:26:14;12.68;;;6.82;;
76065;SDS011;64763;48.928;8.474;2022-12-07T05:28:39;11.18;;;6.45;;
76065;SDS011;64763;48.928;8.474;2022-12-07T05:31:05;10.75;;;5.88;;
76065;SDS011;64763;48.928;8.474;2022-12-07T05:33:30;11.70;;;6.25;;
76065;SDS011;64763;48.928;8.474;2022-12-07T05:35:55;12.23;;;7.22;;
76065;SDS011;64763;48.928;8.474;2022-12-07T05:38:21;11.82;;;5.90;;
76065;SDS011;64763;48.928;8.474;2022-12-07T05:40:46;11.63;;;6.07;;
76065;SDS011;64763;48.928;8.474;2022-12-07T05:43:11;10.43;;;5.82;;
76065;SDS011;64763;48.928;8.474;2022-12-07T05:45:37;11.05;;;6.07;;
76065;SDS011;64763;48.928;8.474;2022-12-07T05:48:02;11.65;;;5.82;;
76065;SDS011;64763;48.928;8.474;2022-12-07T05:50:28;10.65;;;6.10;;
76065;SDS011;64763;48.928;8.474;2022-12-07T05:52:53;12.63;;;7.00;;
76065;SDS011;64763;48.928;8.474;2022-12-07T05:55:19;10.52;;;6.05;;
76065;SDS011;64763;48.928;8.474;2022-12-07T05:57:44;11.18;;;6.00;;
76065;SDS011;64763;48.928;8.474;2022-12-07T06:00:29;14.18;;;6.95;;
76065;SDS011;64763;48.928;8.474;2022-12-07T06:02:55;12.93;;;6.50;;
76065;SDS011;64763;48.928;8.474;2022-12-07T06:05:20;13.02;;;6.30;;
76065;SDS011;64763;48.928;8.474;2022-12-07T06:07:45;11.98;;;6.80;;
76065;SDS011;64763;48.928;8.474;2022-12-07T06:10:11;9.38;;;5.53;;
76065;SDS011;64763;48.928;8.474;2022-12-07T06:12:36;10.68;;;5.85;;
76065;SDS011;64763;48.928;8.474;2022-12-07T06:15:04;10.18;;;5.80;;
76065;SDS011;64763;48.928;8.474;2022-12-07T06:17:30;11.88;;;5.80;;
76065;SDS011;64763;48.928;8.474;2022-12-07T06:19:55;12.85;;;5.65;;
76065;SDS011;64763;48.928;8.474;2022-12-07T06:22:21;9.95;;;5.68;;
76065;SDS011;64763;48.928;8.474;2022-12-07T06:24:46;9.93;;;5.90;;
76065;SDS011;64763;48.928;8.474;2022-12-07T06:27:12;11.65;;;6.00;;
76065;SDS011;64763;48.928;8.474;2022-12-07T06:29:37;9.10;;;5.63;;
76065;SDS011;64763;48.928;8.474;2022-12-07T06:32:03;11.18;;;6.22;;
76065;SDS011;64763;48.928;8.474;2022-12-07T06:34:29;11.65;;;5.88;;
76065;SDS011;64763;48.928;8.474;2022-12-07T06:36:55;11.13;;;5.75;;
76065;SDS011;64763;48.928;8.474;2022-12-07T06:39:21;10.80;;;5.93;;
76065;SDS011;64763;48.928;8.474;2022-12-07T06:41:48;10.57;;;6.20;;
76065;SDS011;64763;48.928;8.474;2022-12-07T06:44:14;10.32;;;5.57;;
76065;SDS011;64763;48.928;8.474;2022-12-07T06:46:39;10.07;;;5.40;;
76065;SDS011;64763;48.928;8.474;2022-12-07T06:49:05;12.68;;;5.97;;
76065;SDS011;64763;48.928;8.474;2022-12-07T06:51:31;11.15;;;5.97;;
76065;SDS011;64763;48.928;8.474;2022-12-07T06:53:57;9.00;;;5.00;;
76065;SDS011;64763;48.928;8.474;2022-12-07T06:56:22;10.95;;;5.30;;
76065;SDS011;64763;48.928;8.474;2022-12-07T06:58:48;9.40;;;5.28;;
76065;SDS011;64763;48.928;8.474;2022-12-07T07:01:14;9.40;;;5.30;;
76065;SDS011;64763;48.928;8.474;2022-12-07T07:03:41;10.73;;;5.20;;
76065;SDS011;64763;48.928;8.474;2022-12-07T07:06:07;9.43;;;5.15;;
76065;SDS011;64763;48.928;8.474;2022-12-07T07:08:33;9.90;;;4.75;;
76065;SDS011;64763;48.928;8.474;2022-12-07T07:10:59;8.00;;;4.88;;
76065;SDS011;64763;48.928;8.474;2022-12-07T07:13:25;10.10;;;5.20;;
76065;SDS011;64763;48.928;8.474;2022-12-07T07:15:51;9.82;;;5.22;;
76065;SDS011;64763;48.928;8.474;2022-12-07T07:18:16;8.98;;;4.93;;
76065;SDS011;64763;48.928;8.474;2022-12-07T07:20:41;8.55;;;5.25;;
76065;SDS011;64763;48.928;8.474;2022-12-07T07:23:07;8.52;;;4.43;;
76065;SDS011;64763;48.928;8.474;2022-12-07T07:25:32;10.15;;;5.40;;
76065;SDS011;64763;48.928;8.474;2022-12-07T07:27:58;8.45;;;5.15;;
76065;SDS011;64763;48.928;8.474;2022-12-07T07:30:23;10.13;;;5.28;;
76065;SDS011;64763;48.928;8.474;2022-12-07T07:32:49;8.40;;;4.40;;
76065;SDS011;64763;48.928;8.474;2022-12-07T07:35:15;9.55;;;4.63;;
76065;SDS011;64763;48.928;8.474;2022-12-07T07:37:40;9.65;;;5.13;;
76065;SDS011;64763;48.928;8.474;2022-12-07T07:40:06;7.88;;;4.72;;
76065;SDS011;64763;48.928;8.474;2022-12-07T07:42:33;8.98;;;4.72;;
76065;SDS011;64763;48.928;8.474;2022-12-07T07:44:58;7.50;;;4.13;;
76065;SDS011;64763;48.928;8.474;2022-12-07T07:47:23;8.23;;;5.25;;
76065;SDS011;64763;48.928;8.474;2022-12-07T07:49:49;7.80;;;4.03;;
76065;SDS011;64763;48.928;8.474;2022-12-07T07:52:14;6.53;;;3.90;;
76065;SDS011;64763;48.928;8.474;2022-12-07T07:54:40;9.82;;;4.85;;
76065;SDS011;64763;48.928;8.474;2022-12-07T07:57:06;10.77;;;4.43;;
76065;SDS011;64763;48.928;8.474;2022-12-07T07:59:32;6.75;;;3.53;;
76065;SDS011;64763;48.928;8.474;2022-12-07T08:01:57;6.80;;;3.92;;
76065;SDS011;64763;48.928;8.474;2022-12-07T08:04:22;6.85;;;3.95;;
76065;SDS011;64763;48.928;8.474;2022-12-07T08:06:48;6.95;;;4.25;;
76065;SDS011;64763;48.928;8.474;2022-12-07T08:09:13;8.43;;;4.03;;
76065;SDS011;64763;48.928;8.474;2022-12-07T08:11:38;7.93;;;4.10;;
76065;SDS011;64763;48.928;8.474;2022-12-07T08:14:04;9.23;;;4.93;;
76065;SDS011;64763;48.928;8.474;2022-12-07T08:16:29;7.20;;;4.32;;
76065;SDS011;64763;48.928;8.474;2022-12-07T08:18:54;7.03;;;3.78;;
76065;SDS011;64763;48.928;8.474;2022-12-07T08:21:20;8.02;;;3.90;;
76065;SDS011;64763;48.928;8.474;2022-12-07T08:23:45;9.52;;;4.95;;
76065;SDS011;64763;48.928;8.474;2022-12-07T08:26:12;8.77;;;4.70;;
76065;SDS011;64763;48.928;8.474;2022-12-07T08:28:38;8.00;;;4.13;;
76065;SDS011;64763;48.928;8.474;2022-12-07T08:31:05;13.10;;;4.95;;
76065;SDS011;64763;48.928;8.474;2022-12-07T08:33:32;8.02;;;4.82;;
76065;SDS011;64763;48.928;8.474;2022-12-07T08:36:01;8.30;;;4.32;;
76065;SDS011;64763;48.928;8.474;2022-12-07T08:38:31;8.70;;;4.90;;
76065;SDS011;64763;48.928;8.474;2022-12-07T08:40:56;10.25;;;4.97;;
76065;SDS011;64763;48.928;8.474;2022-12-07T08:43:22;9.30;;;4.88;;
76065;SDS011;64763;48.928;8.474;2022-12-07T08:45:49;10.55;;;5.07;;
76065;SDS011;64763;48.928;8.474;2022-12-07T08:48:20;8.10;;;4.43;;
76065;SDS011;64763;48.928;8.474;2022-12-07T08:50:49;10.15;;;5.38;;
76065;SDS011;64763;48.928;8.474;2022-12-07T08:53:14;9.57;;;5.22;;
76065;SDS011;64763;48.928;8.474;2022-12-07T08:55:40;10.23;;;5.45;;
76065;SDS011;64763;48.928;8.474;2022-12-07T08:58:05;9.93;;;5.38;;
76065;SDS011;64763;48.928;8.474;2022-12-07T09:00:31;12.70;;;4.88;;
76065;SDS011;64763;48.928;8.474;2022-12-07T09:02:56;9.60;;;4.97;;
76065;SDS011;64763;48.928;8.474;2022-12-07T09:05:22;11.45;;;5.25;;
76065;SDS011;64763;48.928;8.474;2022-12-07T09:07:49;11.68;;;5.30;;
76065;SDS011;64763;48.928;8.474;2022-12-07T09:10:16;7.78;;;4.35;;
76065;SDS011;64763;48.928;8.474;2022-12-07T09:12:42;9.25;;;5.43;;
76065;SDS011;64763;48.928;8.474;2022-12-07T09:15:07;14.02;;;6.20;;
76065;SDS011;64763;48.928;8.474;2022-12-07T09:17:33;9.38;;;4.70;;
76065;SDS011;64763;48.928;8.474;2022-12-07T09:19:59;10.05;;;5.22;;
76065;SDS011;64763;48.928;8.474;2022-12-07T09:22:28;13.13;;;5.80;;
76065;SDS011;64763;48.928;8.474;2022-12-07T09:24:55;10.43;;;5.28;;
76065;SDS011;64763;48.928;8.474;2022-12-07T09:27:20;12.82;;;5.88;;
76065;SDS011;64763;48.928;8.474;2022-12-07T09:29:46;11.40;;;5.85;;
76065;SDS011;64763;48.928;8.474;2022-12-07T09:32:11;14.13;;;6.38;;
76065;SDS011;64763;48.928;8.474;2022-12-07T09:34:36;11.57;;;5.85;;
76065;SDS011;64763;48.928;8.474;2022-12-07T09:37:02;12.77;;;6.90;;
76065;SDS011;64763;48.928;8.474;2022-12-07T09:39:28;11.80;;;6.18;;
76065;SDS011;64763;48.928;8.474;2022-12-07T09:41:54;12.05;;;5.97;;
76065;SDS011;64763;48.928;8.474;2022-12-07T09:44:21;10.70;;;6.07;;
76065;SDS011;64763;48.928;8.474;2022-12-07T09:46:48;12.50;;;6.35;;
76065;SDS011;64763;48.928;8.474;2022-12-07T09:49:17;11.55;;;6.05;;
76065;SDS011;64763;48.928;8.474;2022-12-07T09:51:44;10.40;;;5.60;;
76065;SDS011;64763;48.928;8.474;2022-12-07T09:54:11;12.85;;;6.15;;
76065;SDS011;64763;48.928;8.474;2022-12-07T09:56:38;10.95;;;5.82;;
76065;SDS011;64763;48.928;8.474;2022-12-07T09:59:03;12.40;;;5.85;;
76065;SDS011;64763;48.928;8.474;2022-12-07T10:01:30;11.40;;;5.90;;
76065;SDS011;64763;48.928;8.474;2022-12-07T10:04:10;11.02;;;5.47;;
76065;SDS011;64763;48.928;8.474;2022-12-07T10:06:37;10.18;;;5.25;;
76065;SDS011;64763;48.928;8.474;2022-12-07T10:09:08;12.32;;;5.72;;
76065;SDS011;64763;48.928;8.474;2022-12-07T10:14:32;9.80;;;5.45;;
76065;SDS011;64763;48.928;8.474;2022-12-07T10:16:59;10.20;;;5.05;;
76065;SDS011;64763;48.928;8.474;2022-12-07T10:19:29;9.73;;;5.00;;
76065;SDS011;64763;48.928;8.474;2022-12-07T10:24:28;9.45;;;5.20;;
76065;SDS011;64763;48.928;8.474;2022-12-07T10:26:54;9.57;;;5.05;;
76065;SDS011;64763;48.928;8.474;2022-12-07T10:29:30;9.75;;;5.03;;
76065;SDS011;64763;48.928;8.474;2022-12-07T10:34:33;10.07;;;5.00;;
76065;SDS011;64763;48.928;8.474;2022-12-07T10:37:33;10.50;;;5.35;;
76065;SDS011;64763;48.928;8.474;2022-12-07T10:39:53;10.85;;;5.47;;
76065;SDS011;64763;48.928;8.474;2022-12-07T10:44:46;10.33;;;5.70;;
76065;SDS011;64763;48.928;8.474;2022-12-07T11:00:30;11.90;;;5.95;;
76065;SDS011;64763;48.928;8.474;2022-12-07T11:11:34;12.00;;;6.22;;
76065;SDS011;64763;48.928;8.474;2022-12-07T11:22:30;12.02;;;6.10;;
76065;SDS011;64763;48.928;8.474;2022-12-07T11:30:20;12.55;;;6.10;;
76065;SDS011;64763;48.928;8.474;2022-12-07T11:40:49;11.70;;;6.43;;
76065;SDS011;64763;48.928;8.474;2022-12-07T11:43:26;13.20;;;6.20;;
76065;SDS011;64763;48.928;8.474;2022-12-07T11:45:59;12.07;;;5.85;;
76065;SDS011;64763;48.928;8.474;2022-12-07T11:48:33;11.27;;;5.75;;
76065;SDS011;64763;48.928;8.474;2022-12-07T11:51:01;13.07;;;5.75;;
76065;SDS011;64763;48.928;8.474;2022-12-07T11:53:31;13.23;;;6.15;;
76065;SDS011;64763;48.928;8.474;2022-12-07T11:56:02;11.88;;;6.43;;
76065;SDS011;64763;48.928;8.474;2022-12-07T12:06:36;13.02;;;6.28;;
76065;SDS011;64763;48.928;8.474;2022-12-07T12:09:13;11.38;;;6.38;;
76065;SDS011;64763;48.928;8.474;2022-12-07T12:22:58;13.95;;;6.93;;
76065;SDS011;64763;48.928;8.474;2022-12-07T12:27:56;14.15;;;6.97;;
76065;SDS011;64763;48.928;8.474;2022-12-07T12:30:32;11.55;;;6.28;;
76065;SDS011;64763;48.928;8.474;2022-12-07T12:33:27;13.05;;;6.68;;
76065;SDS011;64763;48.928;8.474;2022-12-07T12:46:45;13.13;;;6.33;;
76065;SDS011;64763;48.928;8.474;2022-12-07T12:51:39;13.17;;;7.40;;
76065;SDS011;64763;48.928;8.474;2022-12-07T12:54:11;16.77;;;7.55;;
76065;SDS011;64763;48.928;8.474;2022-12-07T12:56:41;14.00;;;7.18;;
76065;SDS011;64763;48.928;8.474;2022-12-07T12:59:25;15.05;;;7.55;;
76065;SDS011;64763;48.928;8.474;2022-12-07T13:01:55;17.80;;;7.22;;
76065;SDS011;64763;48.928;8.474;2022-12-07T13:04:48;15.00;;;7.25;;
76065;SDS011;64763;48.928;8.474;2022-12-07T13:15:41;14.05;;;7.22;;
76065;SDS011;64763;48.928;8.474;2022-12-07T13:18:55;24.13;;;9.32;;
76065;SDS011;64763;48.928;8.474;2022-12-07T13:23:51;16.08;;;7.88;;
76065;SDS011;64763;48.928;8.474;2022-12-07T13:31:47;17.25;;;9.65;;
76065;SDS011;64763;48.928;8.474;2022-12-07T13:34:28;18.65;;;9.52;;
76065;SDS011;64763;48.928;8.474;2022-12-07T13:36:53;20.45;;;9.70;;
76065;SDS011;64763;48.928;8.474;2022-12-07T13:39:20;16.95;;;9.13;;
76065;SDS011;64763;48.928;8.474;2022-12-07T13:41:51;21.60;;;8.93;;
76065;SDS011;64763;48.928;8.474;2022-12-07T13:44:18;20.42;;;9.73;;
76065;SDS011;64763;48.928;8.474;2022-12-07T13:51:52;19.40;;;9.85;;
76065;SDS011;64763;48.928;8.474;2022-12-07T13:54:18;21.33;;;9.05;;
76065;SDS011;64763;48.928;8.474;2022-12-07T13:56:47;17.17;;;8.68;;
76065;SDS011;64763;48.928;8.474;2022-12-07T13:59:20;18.58;;;9.73;;
76065;SDS011;64763;48.928;8.474;2022-12-07T14:01:48;17.27;;;9.23;;
76065;SDS011;64763;48.928;8.474;2022-12-07T14:04:18;14.55;;;7.82;;
76065;SDS011;64763;48.928;8.474;2022-12-07T14:06:57;17.95;;;8.18;;
76065;SDS011;64763;48.928;8.474;2022-12-07T14:09:24;15.73;;;8.82;;
76065;SDS011;64763;48.928;8.474;2022-12-07T14:11:51;17.35;;;9.10;;
76065;SDS011;64763;48.928;8.474;2022-12-07T14:14:28;19.38;;;9.40;;
76065;SDS011;64763;48.928;8.474;2022-12-07T14:16:59;16.92;;;8.90;;
76065;SDS011;64763;48.928;8.474;2022-12-07T14:24:59;16.65;;;8.25;;
76065;SDS011;64763;48.928;8.474;2022-12-07T14:27:34;16.42;;;9.63;;
76065;SDS011;64763;48.928;8.474;2022-12-07T14:30:00;19.83;;;9.00;;
76065;SDS011;64763;48.928;8.474;2022-12-07T14:32:27;17.27;;;8.95;;
76065;SDS011;64763;48.928;8.474;2022-12-07T14:37:25;19.85;;;9.30;;
76065;SDS011;64763;48.928;8.474;2022-12-07T14:39:52;18.65;;;8.65;;
76065;SDS011;64763;48.928;8.474;2022-12-07T14:42:17;16.90;;;9.23;;
76065;SDS011;64763;48.928;8.474;2022-12-07T14:44:43;18.75;;;8.45;;
76065;SDS011;64763;48.928;8.474;2022-12-07T14:47:12;15.75;;;8.60;;
76065;SDS011;64763;48.928;8.474;2022-12-07T14:49:37;19.25;;;7.40;;
76065;SDS011;64763;48.928;8.474;2022-12-07T14:52:03;16.55;;;8.90;;
76065;SDS011;64763;48.928;8.474;2022-12-07T14:54:29;18.00;;;9.38;;
76065;SDS011;64763;48.928;8.474;2022-12-07T14:56:56;16.75;;;9.15;;
76065;SDS011;64763;48.928;8.474;2022-12-07T14:59:21;19.55;;;9.82;;
76065;SDS011;64763;48.928;8.474;2022-12-07T15:01:47;17.52;;;8.73;;
76065;SDS011;64763;48.928;8.474;2022-12-07T15:04:12;16.02;;;8.35;;
76065;SDS011;64763;48.928;8.474;2022-12-07T15:06:37;17.75;;;8.52;;
76065;SDS011;64763;48.928;8.474;2022-12-07T15:09:03;14.73;;;8.38;;
76065;SDS011;64763;48.928;8.474;2022-12-07T15:11:29;15.60;;;9.50;;
76065;SDS011;64763;48.928;8.474;2022-12-07T15:13:54;19.52;;;8.23;;
76065;SDS011;64763;48.928;8.474;2022-12-07T15:16:37;14.73;;;8.05;;
76065;SDS011;64763;48.928;8.474;2022-12-07T15:19:04;14.40;;;7.95;;
76065;SDS011;64763;48.928;8.474;2022-12-07T15:21:30;16.95;;;8.32;;
76065;SDS011;64763;48.928;8.474;2022-12-07T15:23:55;17.38;;;8.88;;
76065;SDS011;64763;48.928;8.474;2022-12-07T15:26:21;14.77;;;7.82;;
76065;SDS011;64763;48.928;8.474;2022-12-07T15:28:46;14.82;;;7.88;;
76065;SDS011;64763;48.928;8.474;2022-12-07T15:31:12;18.52;;;9.02;;
76065;SDS011;64763;48.928;8.474;2022-12-07T15:33:42;16.85;;;8.48;;
76065;SDS011;64763;48.928;8.474;2022-12-07T15:36:07;18.20;;;8.80;;
76065;SDS011;64763;48.928;8.474;2022-12-07T15:38:33;17.05;;;8.07;;
76065;SDS011;64763;48.928;8.474;2022-12-07T15:40:58;12.55;;;7.40;;
76065;SDS011;64763;48.928;8.474;2022-12-07T15:43:23;13.80;;;7.38;;
76065;SDS011;64763;48.928;8.474;2022-12-07T15:46:07;13.15;;;7.25;;
76065;SDS011;64763;48.928;8.474;2022-12-07T15:48:33;13.75;;;7.68;;
76065;SDS011;64763;48.928;8.474;2022-12-07T15:51:05;14.25;;;7.72;;
76065;SDS011;64763;48.928;8.474;2022-12-07T15:53:31;15.90;;;7.60;;
76065;SDS011;64763;48.928;8.474;2022-12-07T15:55:56;12.63;;;7.05;;
76065;SDS011;64763;48.928;8.474;2022-12-07T15:58:21;12.52;;;6.80;;
76065;SDS011;64763;48.928;8.474;2022-12-07T16:00:47;14.98;;;6.75;;
76065;SDS011;64763;48.928;8.474;2022-12-07T16:03:13;14.80;;;7.70;;
76065;SDS011;64763;48.928;8.474;2022-12-07T16:05:38;12.27;;;7.07;;
76065;SDS011;64763;48.928;8.474;2022-12-07T16:08:04;16.42;;;8.07;;
76065;SDS011;64763;48.928;8.474;2022-12-07T16:10:29;14.30;;;8.30;;
76065;SDS011;64763;48.928;8.474;2022-12-07T16:12:55;15.15;;;7.95;;
76065;SDS011;64763;48.928;8.474;2022-12-07T16:15:20;14.20;;;7.00;;
76065;SDS011;64763;48.928;8.474;2022-12-07T16:17:45;14.38;;;7.40;;
76065;SDS011;64763;48.928;8.474;2022-12-07T16:20:11;17.23;;;8.43;;
76065;SDS011;64763;48.928;8.474;2022-12-07T16:22:36;15.02;;;8.05;;
76065;SDS011;64763;48.928;8.474;2022-12-07T16:25:02;14.45;;;7.35;;
76065;SDS011;64763;48.928;8.474;2022-12-07T16:27:28;14.30;;;8.45;;
76065;SDS011;64763;48.928;8.474;2022-12-07T16:29:53;17.02;;;8.55;;
76065;SDS011;64763;48.928;8.474;2022-12-07T16:32:18;15.00;;;8.20;;
76065;SDS011;64763;48.928;8.474;2022-12-07T16:34:44;17.08;;;7.93;;
76065;SDS011;64763;48.928;8.474;2022-12-07T16:37:09;21.00;;;9.45;;
76065;SDS011;64763;48.928;8.474;2022-12-07T16:39:35;15.82;;;7.07;;
76065;SDS011;64763;48.928;8.474;2022-12-07T16:42:00;18.65;;;7.35;;
76065;SDS011;64763;48.928;8.474;2022-12-07T16:44:26;12.75;;;6.95;;
76065;SDS011;64763;48.928;8.474;2022-12-07T16:46:51;13.15;;;6.53;;
76065;SDS011;64763;48.928;8.474;2022-12-07T16:49:17;11.75;;;6.20;;
76065;SDS011;64763;48.928;8.474;2022-12-07T16:51:43;11.77;;;6.38;;
76065;SDS011;64763;48.928;8.474;2022-12-07T16:54:11;10.07;;;5.60;;
76065;SDS011;64763;48.928;8.474;2022-12-07T16:56:37;14.40;;;6.60;;
76065;SDS011;64763;48.928;8.474;2022-12-07T16:59:03;15.13;;;6.28;;
76065;SDS011;64763;48.928;8.474;2022-12-07T17:01:28;14.15;;;6.65;;
76065;SDS011;64763;48.928;8.474;2022-12-07T17:03:54;15.68;;;8.93;;
76065;SDS011;64763;48.928;8.474;2022-12-07T17:06:21;15.45;;;7.65;;
76065;SDS011;64763;48.928;8.474;2022-12-07T17:08:48;12.48;;;6.38;;
76065;SDS011;64763;48.928;8.474;2022-12-07T17:11:15;14.38;;;6.63;;